Time;durP1;ratioP1;P1;durP2;ratioP2;P2;SDS_P1;SDS_P2;PMS_P1;PMS_P2;Temp;Humidity;BMP_temperature;BMP_pressure;BME280_temperature;BME280_humidity;BME280_pressure;Samples;Min_cycle;Max_cycle;Signal;HPM_P1;HPM_P2
2022/01/10 00:36:51;;;;;;;47.83;21.98;;;;;;;;;;4300596;33;20063;-78
2022/01/10 00:39:04;;;;;;;47.25;21.73;;;;;;;;;;4309678;33;20394;-78
2022/01/10 00:50:42;;;;;;;48.63;23.00;;;;;;;;;;4261244;33;20573;-78
2022/01/10 00:59:41;;;;;;;;;;;;;;;;;;;;;
2022/01/10 01:35:25;;;;;;;66.68;32.42;;;;;;;;;;4246017;33;20444;-78
2022/01/10 01:44:09;;;;;;;66.35;34.05;;;;;;;;;;4300110;33;20070;-78
2022/01/10 01:49:50;;;;;;;71.68;32.25;;;;;;;;;;4349834;33;20113;-79
2022/01/10 01:52:44;;;;;;;65.43;31.98;;;;;;;;;;4349026;33;20125;-77
2022/01/10 01:58:35;;;;;;;73.10;31.00;;;;;;;;;;4333174;33;20370;-78
2022/01/10 02:01:28;;;;;;;49.58;29.45;;;;;;;;;;4330388;33;20028;-77
2022/01/10 02:04:37;;;;;;;75.07;36.45;;;;;;;;;;4332225;33;20079;-78
2022/01/10 02:10:19;;;;;;;68.82;31.10;;;;;;;;;;4287869;33;20051;-78
2022/01/10 02:19:26;;;;;;;;;;;;;;;;;;;;;
2022/01/10 02:21:54;;;;;;;67.47;40.33;;;;;;;;;;4330706;33;20040;-78
2022/01/10 02:24:26;;;;;;;79.80;41.28;;;;;;;;;;4330297;33;20071;-79
2022/01/10 02:27:00;;;;;;;76.32;38.78;;;;;;;;;;4332952;33;20430;-78
2022/01/10 02:29:38;;;;;;;;;;;;;;;;;;;;;
2022/01/10 02:32:16;;;;;;;;;;;;;;;;;;;;;
2022/01/10 02:35:17;;;;;;;;;;;;;;;;;;;;;
2022/01/10 02:38:18;;;;;;;;;;;;;;;;;;;;;
2022/01/10 02:40:48;;;;;;;58.08;37.60;;;;;;;;;;4344289;33;20051;-78
2022/01/10 02:43:16;;;;;;;71.62;36.97;;;;;;;;;;4345120;33;20035;-78
2022/01/10 02:45:42;;;;;;;65.80;35.72;;;;;;;;;;4346824;33;20043;-78
2022/01/10 02:48:17;;;;;;;;;;;;;;;;;;;;;
2022/01/10 02:51:02;;;;;;;60.47;33.22;;;;;;;;;;4345164;33;20337;-78
2022/01/10 03:10:19;;;;;;;65.75;35.38;;;;;;;;;;4172965;34;20105;-78
2022/01/10 03:12:48;;;;;;;62.85;34.20;;;;;;;;;;4156227;34;20044;-78
2022/01/10 03:15:27;;;;;;;56.15;32.28;;;;;;;;;;4218271;34;20030;-78
2022/01/10 03:17:53;;;;;;;56.20;32.60;;;;;;;;;;4247541;33;20038;-78
2022/01/10 03:26:17;;;;;;;62.35;35.90;;;;;;;;;;4257550;33;20034;-78
2022/01/10 03:28:49;;;;;;;66.22;36.47;;;;;;;;;;4270879;33;20064;-78
2022/01/10 03:31:54;;;;;;;65.32;38.40;;;;;;;;;;4290422;33;20139;-78
2022/01/10 03:34:38;;;;;;;71.12;39.35;;;;;;;;;;4306089;33;20072;-78
2022/01/10 03:37:07;;;;;;;60.08;35.65;;;;;;;;;;4331796;33;20023;-78
2022/01/10 03:40:20;;;;;;;65.78;37.22;;;;;;;;;;4331275;33;20036;-78
2022/01/10 03:45:51;;;;;;;;;;;;;;;;;;;;;
2022/01/10 03:57:48;;;;;;;56.88;32.95;;;;;;;;;;4271410;33;20088;-78
2022/01/10 04:09:54;;;;;;;56.63;33.22;;;;;;;;;;4248566;33;20109;-78
2022/01/10 04:15:24;;;;;;;62.42;34.35;;;;;;;;;;4242496;33;20022;-78
2022/01/10 04:20:46;;;;;;;70.37;37.80;;;;;;;;;;4267934;33;20115;-78
2022/01/10 04:23:39;;;;;;;52.22;36.60;;;;;;;;;;4299871;33;20017;-78
2022/01/10 04:26:17;;;;;;;56.58;34.78;;;;;;;;;;4308542;33;20032;-78
2022/01/10 04:28:56;;;;;;;62.95;34.97;;;;;;;;;;4333853;33;20023;-78
2022/01/10 04:31:22;;;;;;;65.62;37.33;;;;;;;;;;4331005;33;20024;-78
2022/01/10 04:33:47;;;;;;;;;;;;;;;;;;4333870;33;20025;-78
2022/01/10 04:36:23;;;;;;;51.78;33.95;;;;;;;;;;4333605;33;19953;-78
2022/01/10 04:38:55;;;;;;;65.43;38.65;;;;;;;;;;4334268;33;20024;-79
2022/01/10 04:42:05;;;;;;;63.22;37.67;;;;;;;;;;4333866;33;20021;-78
2022/01/10 04:45:09;;;;;;;65.12;36.60;;;;;;;;;;4319052;33;20027;-79
2022/01/10 04:47:53;;;;;;;63.20;37.85;;;;;;;;;;4321822;33;20450;-78
2022/01/10 04:59:34;;;;;;;;;;;;;;;;;;;;;
2022/01/10 05:05:52;;;;;;;71.62;40.88;;;;;;;;;;4287810;33;20044;-79
2022/01/10 05:12:28;;;;;;;;;;;;;;;;;;;;;
2022/01/10 05:14:31;;;;;;;;;;;;;;;;;;;;;
2022/01/10 05:22:55;;;;;;;64.53;38.10;;;;;;;;;;4347966;33;20129;-78
2022/01/10 05:25:39;;;;;;;65.65;38.13;;;;;;;;;;4347919;33;20040;-78
2022/01/10 05:28:05;;;;;;;62.28;40.03;;;;;;;;;;4347697;33;20008;-78
2022/01/10 05:39:34;;;;;;;73.03;36.92;;;;;;;;;;4347734;33;20042;-78
2022/01/10 05:51:36;;;;;;;63.67;38.20;;;;;;;;;;4294244;33;20075;-77
2022/01/10 05:57:41;;;;;;;59.90;36.60;;;;;;;;;;4258987;33;20393;-78
2022/01/10 06:00:21;;;;;;;64.80;37.03;;;;;;;;;;4188557;34;20051;-78
2022/01/10 06:03:00;;;;;;;68.00;35.90;;;;;;;;;;4231872;33;20145;-77
2022/01/10 06:15:01;;;;;;;65.07;33.25;;;;;;;;;;4230019;34;20077;-78
2022/01/10 06:21:06;;;;;;;55.12;34.78;;;;;;;;;;4188197;34;20027;-78
2022/01/10 06:24:16;;;;;;;;;;;;;;;;;;;;;
2022/01/10 06:26:44;;;;;;;69.90;38.15;;;;;;;;;;4190498;34;20411;-79
2022/01/10 06:29:23;;;;;;;;;;;;;;;;;;;;;
2022/01/10 06:32:25;;;;;;;59.03;35.83;;;;;;;;;;4214982;34;20034;-79
2022/01/10 06:34:57;;;;;;;54.58;33.20;;;;;;;;;;4215844;34;20026;-79
2022/01/10 06:40:48;;;;;;;62.25;35.17;;;;;;;;;;4270337;33;20111;-77
2022/01/10 06:43:13;;;;;;;;;;;;;;;;;;4272554;33;20097;-76
2022/01/10 06:45:58;;;;;;;;;;;;;;;;;;;;;
2022/01/10 06:48:33;;;;;;;59.75;38.20;;;;;;;;;;4307468;33;20414;-79
2022/01/10 06:51:36;;;;;;;58.83;34.70;;;;;;;;;;4361417;32;20022;-77
2022/01/10 06:54:06;;;;;;;62.60;38.35;;;;;;;;;;4354205;32;20074;-77
2022/01/10 06:56:47;;;;;;;62.17;36.72;;;;;;;;;;4345646;33;20020;-77
2022/01/10 06:59:40;;;;;;;59.85;39.63;;;;;;;;;;4346009;33;20016;-78
2022/01/10 07:02:27;;;;;;;;;;;;;;;;;;;;;
2022/01/10 07:04:59;;;;;;;66.90;35.65;;;;;;;;;;4346993;33;20023;-78
2022/01/10 07:07:24;;;;;;;53.80;35.08;;;;;;;;;;4346663;33;20149;-78
2022/01/10 07:09:52;;;;;;;;;;;;;;;;;;4345386;33;20457;-77
2022/01/10 07:12:26;;;;;;;60.15;35.47;;;;;;;;;;4346417;33;19935;-78
2022/01/10 07:18:51;;;;;;;62.90;36.80;;;;;;;;;;4291841;33;20051;-78
2022/01/10 07:24:59;;;;;;;60.00;35.40;;;;;;;;;;4257819;33;20037;-78
2022/01/10 07:27:48;;;;;;;54.05;34.55;;;;;;;;;;4257446;33;20026;-78
2022/01/10 07:30:13;;;;;;;62.70;34.42;;;;;;;;;;4222678;33;20101;-78
2022/01/10 07:32:42;;;;;;;;;;;;;;;;;;4243135;33;20476;-79
2022/01/10 07:35:24;;;;;;;53.83;34.33;;;;;;;;;;4286621;33;20325;-80
2022/01/10 07:38:14;;;;;;;64.97;33.20;;;;;;;;;;4360249;32;20141;-78
2022/01/10 07:44:20;;;;;;;57.30;31.77;;;;;;;;;;4287960;33;20047;-78
2022/01/10 07:46:29;;;;;;;52.65;30.85;;;;;;;;;;4290609;33;20090;-78
2022/01/10 07:49:07;;;;;;;;;;;;;;;;;;;;;
2022/01/10 07:51:52;;;;;;;66.07;32.92;;;;;;;;;;4345516;33;20114;-77
2022/01/10 07:54:17;;;;;;;60.25;29.90;;;;;;;;;;4338862;33;20032;-78
2022/01/10 07:56:52;;;;;;;;;;;;;;;;;;;;;
2022/01/10 07:59:42;;;;;;;;;;;;;;;;;;;;;
2022/01/10 08:05:01;;;;;;;59.10;28.60;;;;;;;;;;4329504;33;20065;-78
2022/01/10 08:07:26;;;;;;;;;;;;;;;;;;4345008;33;20410;-78
2022/01/10 08:09:51;;;;;;;53.13;27.52;;;;;;;;;;4332901;33;19944;-78
2022/01/10 08:12:17;;;;;;;;;;;;;;;;;;4337977;33;20089;-76
2022/01/10 08:14:45;;;;;;;50.92;29.83;;;;;;;;;;4345537;33;19939;-77
2022/01/10 08:17:10;;;;;;;54.97;30.20;;;;;;;;;;4345467;33;20106;-78
2022/01/10 08:19:36;;;;;;;;;;;;;;;;;;4344606;33;20036;-77
2022/01/10 08:22:04;;;;;;;46.95;27.87;;;;;;;;;;4345483;33;20273;-77
2022/01/10 08:33:23;;;;;;;48.05;28.92;;;;;;;;;;4328750;33;20417;-77
2022/01/10 08:35:51;;;;;;;;;;;;;;;;;;4332449;33;20015;-78
2022/01/10 08:38:26;;;;;;;50.22;26.87;;;;;;;;;;4345620;33;19943;-79
2022/01/10 08:40:53;;;;;;;47.28;27.50;;;;;;;;;;4345078;33;20361;-79
2022/01/10 08:43:22;;;;;;;41.85;25.37;;;;;;;;;;4345326;33;20118;-79
2022/01/10 08:45:50;;;;;;;49.80;26.83;;;;;;;;;;4345261;33;20093;-78
2022/01/10 08:48:16;;;;;;;45.28;26.70;;;;;;;;;;4343662;33;20044;-79
2022/01/10 08:50:51;;;;;;;;;;;;;;;;;;4345771;33;20081;-78
2022/01/10 08:53:17;;;;;;;45.28;25.02;;;;;;;;;;4344059;33;19953;-78
2022/01/10 08:55:49;;;;;;;;;;;;;;;;;;4345052;33;20415;-78
2022/01/10 08:58:32;;;;;;;57.40;25.80;;;;;;;;;;4345704;33;19934;-78
2022/01/10 09:04:03;;;;;;;45.28;25.98;;;;;;;;;;4345198;33;20082;-79
2022/01/10 09:13:36;;;;;;;53.60;29.42;;;;;;;;;;4226873;34;20357;-78
2022/01/10 09:16:18;;;;;;;;;;;;;;;;;;;;;
2022/01/10 09:22:18;;;;;;;49.83;24.05;;;;;;;;;;4237371;33;20179;-77
2022/01/10 09:24:48;;;;;;;45.83;24.55;;;;;;;;;;4249473;33;20046;-78
2022/01/10 09:27:17;;;;;;;36.70;22.20;;;;;;;;;;4303536;33;20031;-78
2022/01/10 09:29:46;;;;;;;37.50;22.17;;;;;;;;;;4333075;33;20086;-78
2022/01/10 09:32:34;;;;;;;49.28;21.98;;;;;;;;;;4319540;33;20074;-78
2022/01/10 09:35:49;;;;;;;;;;;;;;;;;;;;;
2022/01/10 09:38:15;;;;;;;38.65;21.87;;;;;;;;;;4304913;33;20032;-79
2022/01/10 09:46:26;;;;;;;36.05;21.80;;;;;;;;;;4335423;33;20460;-78
2022/01/10 09:52:03;;;;;;;35.85;21.83;;;;;;;;;;4344300;33;20115;-80
2022/01/10 09:54:31;;;;;;;41.03;22.73;;;;;;;;;;4338548;33;20066;-78
2022/01/10 09:57:25;;;;;;;34.50;22.13;;;;;;;;;;4347691;33;20050;-78
2022/01/10 10:03:31;;;;;;;40.42;22.48;;;;;;;;;;4301496;33;20076;-78
2022/01/10 10:09:25;;;;;;;43.85;22.60;;;;;;;;;;4296935;33;20100;-78
2022/01/10 10:14:45;;;;;;;42.23;22.40;;;;;;;;;;4336678;33;20094;-78
2022/01/10 10:17:17;;;;;;;45.58;20.27;;;;;;;;;;4346879;33;20179;-78
2022/01/10 10:19:44;;;;;;;43.45;22.92;;;;;;;;;;4347166;33;20055;-78
2022/01/10 10:25:49;;;;;;;48.92;22.77;;;;;;;;;;4330587;33;20456;-78
2022/01/10 10:34:31;;;;;;;36.75;20.80;;;;;;;;;;4315421;33;20130;-80
2022/01/10 10:40:02;;;;;;;40.30;20.70;;;;;;;;;;4315405;33;20064;-80
2022/01/10 10:43:09;;;;;;;;;;;;;;;;;;;;;
2022/01/10 10:45:35;;;;;;;44.90;22.95;;;;;;;;;;4322295;33;20044;-79
2022/01/10 10:48:21;;;;;;;45.17;21.10;;;;;;;;;;4345616;33;20138;-79
2022/01/10 11:00:19;;;;;;;51.13;22.62;;;;;;;;;;4232380;33;20056;-79
2022/01/10 11:02:44;;;;;;;39.42;21.33;;;;;;;;;;4242319;33;20050;-78
2022/01/10 11:05:11;;;;;;;;;;;;;;;;;;4286761;33;20079;-78
2022/01/10 11:07:36;;;;;;;36.70;19.65;;;;;;;;;;4344095;33;20318;-78
2022/01/10 11:10:02;;;;;;;;;;;;;;;;;;4350864;33;20090;-78
2022/01/10 11:12:35;;;;;;;33.75;19.85;;;;;;;;;;4346509;33;19989;-79
2022/01/10 11:15:20;;;;;;;;;;;;;;;;;;;;;
2022/01/10 11:18:11;;;;;;;35.80;20.25;;;;;;;;;;4331488;33;20442;-78
2022/01/10 11:21:13;;;;;;;35.60;20.40;;;;;;;;;;4284954;33;20041;-78
2022/01/10 11:24:20;;;;;;;40.63;20.88;;;;;;;;;;4285446;33;20041;-78
2022/01/10 11:29:43;;;;;;;35.42;21.90;;;;;;;;;;4285959;33;20457;-79
2022/01/10 11:32:09;;;;;;;36.45;21.40;;;;;;;;;;4313943;33;20048;-80
2022/01/10 11:34:34;;;;;;;;;;;;;;;;;;4348204;33;20409;-78
2022/01/10 11:37:02;;;;;;;40.25;19.85;;;;;;;;;;4356129;33;19978;-78
2022/01/10 11:39:47;;;;;;;42.47;20.88;;;;;;;;;;4354674;33;20078;-80
2022/01/10 11:51:41;;;;;;;36.65;19.60;;;;;;;;;;4271555;33;20446;-79
2022/01/10 11:54:30;;;;;;;37.67;19.48;;;;;;;;;;4271354;33;20792;-79
2022/01/10 12:00:09;;;;;;;29.80;17.40;;;;;;;;;;4284835;33;20058;-79
2022/01/10 12:02:35;;;;;;;;;;;;;;;;;;4331585;33;20032;-80
2022/01/10 12:05:02;;;;;;;33.78;14.70;;;;;;;;;;4330639;33;20312;-80
2022/01/10 12:13:41;;;;;;;29.27;14.13;;;;;;;;;;4281715;33;20032;-79
2022/01/10 12:22:29;;;;;;;27.08;15.10;;;;;;;;;;4327136;33;20065;-79
2022/01/10 12:31:32;;;;;;;33.30;15.70;;;;;;;;;;4270133;33;20049;-78
2022/01/10 12:33:58;;;;;;;29.67;15.02;;;;;;;;;;4270619;33;20440;-79
2022/01/10 12:39:43;;;;;;;33.83;14.85;;;;;;;;;;4267803;33;20095;-79
2022/01/10 12:48:02;;;;;;;;;;;;;;;;;;4245397;33;20094;-80
2022/01/10 12:50:28;;;;;;;30.83;12.63;;;;;;;;;;4333959;33;19966;-79
2022/01/10 12:53:48;;;;;;;;;;;;;;;;;;;;;
2022/01/10 12:56:07;;;;;;;30.92;11.63;;;;;;;;;;4325270;33;19947;-79
2022/01/10 13:01:58;;;;;;;23.60;11.98;;;;;;;;;;4302296;33;20058;-80
2022/01/10 13:04:39;;;;;;;26.83;11.98;;;;;;;;;;4301926;33;20063;-79
2022/01/10 13:07:07;;;;;;;28.87;12.45;;;;;;;;;;4329172;33;20048;-79
2022/01/10 13:19:36;;;;;;;28.80;12.85;;;;;;;;;;4230623;33;20512;-80
2022/01/10 13:31:38;;;;;;;26.25;12.05;;;;;;;;;;4161560;34;20098;-80
2022/01/10 13:37:40;;;;;;;;;;;;;;;;;;;;;
2022/01/10 13:49:28;;;;;;;29.35;12.13;;;;;;;;;;4197854;34;20480;-79
2022/01/10 13:57:40;;;;;;;31.50;14.73;;;;;;;;;;4332561;33;20098;-79
2022/01/10 14:00:18;;;;;;;36.13;17.10;;;;;;;;;;4318119;33;20044;-79
2022/01/10 14:03:00;;;;;;;36.17;18.35;;;;;;;;;;4326147;33;20041;-80
2022/01/10 14:05:32;;;;;;;30.55;16.45;;;;;;;;;;4333257;33;20091;-79
2022/01/10 14:08:04;;;;;;;34.05;20.55;;;;;;;;;;4334765;33;20511;-79
2022/01/10 14:10:30;;;;;;;42.70;22.00;;;;;;;;;;4331705;33;20357;-80
2022/01/10 14:12:56;;;;;;;38.30;20.23;;;;;;;;;;4328824;33;20341;-80
2022/01/10 14:15:21;;;;;;;;;;;;;;;;;;4332568;33;20094;-80
2022/01/10 14:17:50;;;;;;;38.28;21.23;;;;;;;;;;4331051;33;19966;-79
2022/01/10 14:20:24;;;;;;;52.10;26.10;;;;;;;;;;4332978;33;20036;-79
2022/01/10 14:23:05;;;;;;;28.58;17.42;;;;;;;;;;4318589;33;20050;-80
2022/01/10 14:25:31;;;;;;;28.85;18.85;;;;;;;;;;4343525;33;20436;-80
2022/01/10 14:31:06;;;;;;;36.50;16.83;;;;;;;;;;4299868;33;19928;-79
2022/01/10 14:37:10;;;;;;;32.38;14.93;;;;;;;;;;4256985;33;20134;-79
2022/01/10 14:39:35;;;;;;;35.25;17.12;;;;;;;;;;4255441;33;20053;-79
2022/01/10 14:42:00;;;;;;;;;;;;;;;;;;4299873;33;20063;-79
2022/01/10 14:44:25;;;;;;;31.02;17.70;;;;;;;;;;4345807;33;19942;-79
2022/01/10 14:46:54;;;;;;;;;;;;;;;;;;4334897;33;20506;-79
2022/01/10 14:52:40;;;;;;;37.03;18.48;;;;;;;;;;4314816;33;20147;-79
2022/01/10 14:55:58;;;;;;;34.88;18.45;;;;;;;;;;4346625;33;20027;-79
2022/01/10 14:58:19;;;;;;;39.22;20.27;;;;;;;;;;4339289;33;20127;-79
2022/01/10 15:04:46;;;;;;;35.45;21.17;;;;;;;;;;4294826;33;20051;-78
2022/01/10 15:07:35;;;;;;;44.53;22.80;;;;;;;;;;4256121;33;20428;-78
2022/01/10 15:16:22;;;;;;;69.82;33.42;;;;;;;;;;4255819;33;20064;-80
2022/01/10 15:19:26;;;;;;;72.80;40.53;;;;;;;;;;4275432;33;20041;-79
2022/01/10 15:21:57;;;;;;;56.37;27.40;;;;;;;;;;4285159;33;20108;-79
2022/01/10 15:24:36;;;;;;;;;;;;;;;;;;;;;
2022/01/10 15:27:21;;;;;;;49.97;29.25;;;;;;;;;;4298027;33;20081;-78
2022/01/10 15:33:14;;;;;;;;;;;;;;;;;;;;;
2022/01/10 15:42:14;;;;;;;;;;;;;;;;;;;;;
2022/01/10 15:44:44;;;;;;;48.90;25.98;;;;;;;;;;4239775;33;20056;-79
2022/01/10 15:47:13;;;;;;;46.20;25.73;;;;;;;;;;4271409;33;20054;-79
2022/01/10 15:50:10;;;;;;;;;;;;;;;;;;;;;
2022/01/10 15:53:04;;;;;;;52.83;27.30;;;;;;;;;;4325676;33;20066;-79
2022/01/10 15:59:06;;;;;;;61.10;28.90;;;;;;;;;;4330783;33;20393;-79
2022/01/10 16:02:14;;;;;;;53.65;27.35;;;;;;;;;;4329362;33;20051;-79
2022/01/10 16:04:47;;;;;;;49.78;27.77;;;;;;;;;;4330293;33;20346;-79
2022/01/10 16:07:13;;;;;;;49.03;28.33;;;;;;;;;;4329302;33;20082;-79
2022/01/10 16:10:41;;;;;;;;;;;;;;;;;;4330586;33;20035;-79
2022/01/10 16:12:34;;;;;;;61.95;30.35;;;;;;;;;;4322104;33;19953;-79
2022/01/10 16:15:10;;;;;;;60.12;29.92;;;;;;;;;;4330822;33;20055;-79
2022/01/10 16:17:35;;;;;;;;;;;;;;;;;;4330433;33;20027;-79
2022/01/10 16:20:04;;;;;;;68.28;34.63;;;;;;;;;;4331912;33;20108;-79
2022/01/10 16:22:30;;;;;;;53.75;31.85;;;;;;;;;;4335482;33;20172;-79
2022/01/10 16:25:08;;;;;;;;;;;;;;;;;;;;;
2022/01/10 16:27:51;;;;;;;76.00;34.53;;;;;;;;;;4335915;33;19971;-79
2022/01/10 16:30:37;;;;;;;70.28;32.95;;;;;;;;;;4335697;33;20036;-79
2022/01/10 16:33:03;;;;;;;64.62;33.10;;;;;;;;;;4335075;33;20040;-78
2022/01/10 16:35:28;;;;;;;;;;;;;;;;;;4337310;33;20066;-79
2022/01/10 16:44:35;;;;;;;60.25;31.52;;;;;;;;;;4263324;33;20113;-78
2022/01/10 16:47:17;;;;;;;62.05;33.58;;;;;;;;;;4309278;33;20469;-78
2022/01/10 16:52:42;;;;;;;62.67;33.47;;;;;;;;;;4347873;33;20078;-79
2022/01/10 16:55:12;;;;;;;67.97;32.90;;;;;;;;;;4352292;33;20028;-78
2022/01/10 16:57:53;;;;;;;65.47;34.25;;;;;;;;;;4352062;33;20032;-79
2022/01/10 17:00:33;;;;;;;67.35;34.97;;;;;;;;;;4350035;33;20027;-79
2022/01/10 17:03:04;;;;;;;66.20;34.83;;;;;;;;;;4351686;33;20087;-78
2022/01/10 17:08:35;;;;;;;74.12;38.33;;;;;;;;;;4329433;33;20020;-80
2022/01/10 17:11:18;;;;;;;;;;;;;;;;;;4355880;33;20058;-79
2022/01/10 17:13:44;;;;;;;64.10;32.72;;;;;;;;;;4354313;33;19943;-80
2022/01/10 17:16:09;;;;;;;;;;;;;;;;;;4355791;33;20389;-81
2022/01/10 17:18:48;;;;;;;63.85;31.75;;;;;;;;;;4354991;33;19938;-80
2022/01/10 17:21:26;;;;;;;;;;;;;;;;;;;;;
2022/01/10 17:24:01;;;;;;;64.82;32.13;;;;;;;;;;4353537;33;20086;-79
2022/01/10 17:27:05;;;;;;;73.12;34.00;;;;;;;;;;4354831;33;20023;-79
2022/01/10 17:29:30;;;;;;;64.82;33.15;;;;;;;;;;4305219;33;20126;-79
2022/01/10 17:31:55;;;;;;;;;;;;;;;;;;4304671;33;20041;-79
2022/01/10 17:34:23;;;;;;;64.22;32.46;;;;;;;;;;4322987;33;19975;-80
2022/01/10 17:36:49;;;;;;;73.85;35.00;;;;;;;;;;4347200;33;20069;-80
2022/01/10 17:39:17;;;;;;;;;;;;;;;;;;4350432;33;20028;-79
2022/01/10 17:41:45;;;;;;;73.25;39.50;;;;;;;;;;4350663;33;19939;-78
2022/01/10 17:44:24;;;;;;;;;;;;;;;;;;;;;
2022/01/10 17:47:05;;;;;;;73.78;35.53;;;;;;;;;;4348341;33;20073;-79
2022/01/10 17:49:41;;;;;;;73.80;39.22;;;;;;;;;;4348767;33;20079;-79
2022/01/10 17:54:41;;;;;;;79.75;38.15;;;;;;;;;;4350815;32;20117;-80
2022/01/10 17:57:07;;;;;;;68.35;34.78;;;;;;;;;;4349501;33;20062;-79
2022/01/10 17:59:35;;;;;;;;;;;;;;;;;;4349374;33;20082;-79
2022/01/10 18:02:00;;;;;;;70.12;32.85;;;;;;;;;;4351130;33;19973;-80
2022/01/10 18:04:28;;;;;;;;;;;;;;;;;;4357149;33;20031;-80
2022/01/10 18:09:39;;;;;;;75.70;34.78;;;;;;;;;;4346022;33;20048;-80
2022/01/10 18:12:05;;;;;;;;;;;;;;;;;;4347926;33;20070;-80
2022/01/10 18:15:30;;;;;;;76.68;37.28;;;;;;;;;;4339821;33;20348;-80
2022/01/10 18:17:45;;;;;;;81.20;37.25;;;;;;;;;;4341500;33;20115;-80
2022/01/10 18:20:30;;;;;;;74.12;35.30;;;;;;;;;;4347253;33;20066;-80
2022/01/10 18:22:56;;;;;;;88.95;40.15;;;;;;;;;;4347922;33;20036;-79
2022/01/10 18:25:24;;;;;;;;;;;;;;;;;;4347548;33;20054;-79
2022/01/10 18:31:33;;;;;;;;;;;;;;;;;;;;;
2022/01/10 18:34:25;;;;;;;78.43;35.97;;;;;;;;;;4295216;33;20064;-81
2022/01/10 18:40:13;;;;;;;103.22;32.83;;;;;;;;;;4286502;33;20067;-81
2022/01/10 18:42:47;;;;;;;191.27;36.67;;;;;;;;;;4312359;33;20055;-81
2022/01/10 18:45:22;;;;;;;241.30;42.38;;;;;;;;;;4343973;33;20035;-81
2022/01/10 18:47:49;;;;;;;216.95;38.65;;;;;;;;;;4347391;33;20053;-80
2022/01/10 18:50:17;;;;;;;140.30;39.88;;;;;;;;;;4346904;33;20390;-81
2022/01/10 18:52:45;;;;;;;142.13;36.33;;;;;;;;;;4332516;33;20441;-80
2022/01/10 18:55:10;;;;;;;256.40;44.45;;;;;;;;;;4345915;33;20069;-80
2022/01/10 18:57:35;;;;;;;;;;;;;;;;;;4346909;33;20358;-80
2022/01/10 19:00:09;;;;;;;206.36;41.12;;;;;;;;;;4340320;33;20367;-80
2022/01/10 19:02:53;;;;;;;269.00;47.05;;;;;;;;;;4330499;33;20017;-79
2022/01/10 19:05:33;;;;;;;228.60;42.85;;;;;;;;;;4332044;33;20090;-79
2022/01/10 19:08:14;;;;;;;228.12;45.20;;;;;;;;;;4331377;33;20074;-80
2022/01/10 19:10:41;;;;;;;175.25;39.63;;;;;;;;;;4331702;33;20028;-80
2022/01/10 19:13:07;;;;;;;202.90;47.72;;;;;;;;;;4331268;33;20332;-82
2022/01/10 19:15:32;;;;;;;;;;;;;;;;;;4332336;33;20051;-81
2022/01/10 19:18:24;;;;;;;220.18;44.05;;;;;;;;;;4331842;33;19943;-80
2022/01/10 19:21:13;;;;;;;;;;;;;;;;;;;;;
2022/01/10 19:23:51;;;;;;;269.08;46.95;;;;;;;;;;4331306;33;20020;-80
2022/01/10 19:26:16;;;;;;;150.10;41.58;;;;;;;;;;4331511;33;20028;-80
2022/01/10 19:28:50;;;;;;;;;;;;;;;;;;4331876;33;20437;-81
2022/01/10 19:31:19;;;;;;;179.27;50.50;;;;;;;;;;4332228;33;19939;-81
2022/01/10 19:36:33;;;;;;;213.12;44.10;;;;;;;;;;4314718;33;20086;-80
2022/01/10 19:39:02;;;;;;;157.35;39.78;;;;;;;;;;4332045;33;20020;-80
2022/01/10 19:42:00;;;;;;;;;;;;;;;;;;;;;
2022/01/10 19:44:53;;;;;;;206.87;42.05;;;;;;;;;;4330776;33;20067;-80
2022/01/10 19:47:21;;;;;;;200.62;42.53;;;;;;;;;;4327666;33;20027;-81
2022/01/10 19:49:57;;;;;;;137.95;42.35;;;;;;;;;;4330794;33;20349;-81
2022/01/10 19:52:29;;;;;;;249.27;48.05;;;;;;;;;;4333875;33;20032;-81
2022/01/10 19:54:54;;;;;;;155.02;38.38;;;;;;;;;;4344497;33;20461;-81
2022/01/10 19:57:19;;;;;;;;;;;;;;;;;;4344752;33;20036;-81
2022/01/10 19:59:58;;;;;;;;;;;;;;;;;;;;;
2022/01/10 20:02:42;;;;;;;125.80;36.40;;;;;;;;;;4345255;33;20047;-80
2022/01/10 20:08:12;;;;;;;119.18;36.75;;;;;;;;;;4345356;33;20070;-80
2022/01/10 20:10:40;;;;;;;137.68;37.42;;;;;;;;;;4346063;33;20103;-81
2022/01/10 20:13:06;;;;;;;122.65;36.00;;;;;;;;;;4345528;33;20054;-80
2022/01/10 20:15:31;;;;;;;;;;;;;;;;;;4345600;33;20059;-80
2022/01/10 20:18:04;;;;;;;161.46;40.30;;;;;;;;;;4335655;33;19959;-80
2022/01/10 20:20:48;;;;;;;166.43;43.45;;;;;;;;;;4331302;33;20088;-80
2022/01/10 20:23:53;;;;;;;193.87;43.28;;;;;;;;;;4317629;33;20066;-80
2022/01/10 20:26:21;;;;;;;181.68;45.60;;;;;;;;;;4333207;33;20324;-80
2022/01/10 20:28:46;;;;;;;181.85;43.10;;;;;;;;;;4345169;33;20043;-80
2022/01/10 20:31:11;;;;;;;;;;;;;;;;;;4346172;33;20320;-80
2022/01/10 20:33:37;;;;;;;181.63;39.45;;;;;;;;;;4345448;33;19943;-80
2022/01/10 20:36:02;;;;;;;;;;;;;;;;;;4345713;33;20196;-80
2022/01/10 20:38:30;;;;;;;208.40;47.22;;;;;;;;;;4336890;33;19951;-80
2022/01/10 20:41:06;;;;;;;;;;;;;;;;;;;;;
2022/01/10 20:46:48;;;;;;;221.50;49.08;;;;;;;;;;4331577;33;20058;-81
2022/01/10 20:51:57;;;;;;;229.77;47.50;;;;;;;;;;4345820;33;19938;-80
2022/01/10 20:54:33;;;;;;;;;;;;;;;;;;;;;
2022/01/10 20:57:53;;;;;;;;;;;;;;;;;;;;;
2022/01/10 21:00:46;;;;;;;181.75;44.10;;;;;;;;;;4301438;33;20037;-81
2022/01/10 21:03:25;;;;;;;;;;;;;;;;;;;;;
2022/01/10 21:06:12;;;;;;;198.45;45.00;;;;;;;;;;4272155;33;20080;-80
2022/01/10 21:08:50;;;;;;;173.18;42.35;;;;;;;;;;4273543;33;20060;-80
2022/01/10 21:11:18;;;;;;;214.98;46.00;;;;;;;;;;4313730;33;20032;-80
2022/01/10 21:13:50;;;;;;;268.00;49.50;;;;;;;;;;4345119;33;20032;-81
2022/01/10 21:17:08;;;;;;;184.77;45.72;;;;;;;;;;4348341;33;20451;-80
2022/01/10 21:23:05;;;;;;;145.40;40.60;;;;;;;;;;4348324;33;20062;-81
2022/01/10 21:32:50;;;;;;;137.25;39.33;;;;;;;;;;4263515;33;20387;-80
2022/01/10 21:35:36;;;;;;;104.03;33.97;;;;;;;;;;4282509;33;20465;-80
2022/01/10 21:38:01;;;;;;;104.38;36.50;;;;;;;;;;4316111;33;20135;-80
2022/01/10 21:40:37;;;;;;;;;;;;;;;;;;4339086;33;20050;-80
2022/01/10 21:43:06;;;;;;;109.50;36.78;;;;;;;;;;4347726;33;20016;-80
2022/01/10 21:45:35;;;;;;;82.35;33.75;;;;;;;;;;4344158;33;20081;-81
2022/01/10 21:48:05;;;;;;;109.85;37.50;;;;;;;;;;4333414;33;20028;-80
2022/01/10 21:50:57;;;;;;;118.22;40.10;;;;;;;;;;4333089;33;20087;-80
2022/01/10 21:53:37;;;;;;;92.90;34.45;;;;;;;;;;4330639;33;20031;-80
2022/01/10 21:56:06;;;;;;;112.97;39.08;;;;;;;;;;4332355;33;20090;-80
2022/01/10 21:58:34;;;;;;;131.80;42.10;;;;;;;;;;4332461;33;20055;-80
2022/01/10 22:07:40;;;;;;;;;;;;;;;;;;;;;
2022/01/10 22:23:06;;;;;;;110.37;37.42;;;;;;;;;;4311304;33;20068;-80
2022/01/10 22:25:54;;;;;;;96.50;33.75;;;;;;;;;;4316048;33;20059;-80
2022/01/10 22:48:11;;;;;;;112.82;40.08;;;;;;;;;;4174810;34;20089;-80
2022/01/10 22:50:58;;;;;;;101.90;38.42;;;;;;;;;;4160784;34;20028;-80
2022/01/10 22:53:57;;;;;;;;;;;;;;;;;;;;;
2022/01/10 22:56:57;;;;;;;110.12;39.08;;;;;;;;;;4196185;34;20347;-81
2022/01/10 22:59:35;;;;;;;104.30;39.63;;;;;;;;;;4241295;33;20070;-81
2022/01/10 23:02:07;;;;;;;109.55;41.00;;;;;;;;;;4242831;33;20522;-81
2022/01/10 23:04:36;;;;;;;111.10;40.12;;;;;;;;;;4258640;33;20036;-81
2022/01/10 23:07:44;;;;;;;;;;;;;;;;;;;;;
2022/01/10 23:10:28;;;;;;;86.95;35.63;;;;;;;;;;4331734;33;20050;-81
2022/01/10 23:12:56;;;;;;;90.07;34.42;;;;;;;;;;4331516;33;20024;-82
2022/01/10 23:15:22;;;;;;;94.13;38.38;;;;;;;;;;4330923;33;20031;-81
2022/01/10 23:17:56;;;;;;;;;;;;;;;;;;4330111;33;20441;-81
2022/01/10 23:20:28;;;;;;;84.85;35.72;;;;;;;;;;4331770;33;19990;-81
2022/01/10 23:23:03;;;;;;;83.95;34.92;;;;;;;;;;4331349;33;20031;-81
2022/01/10 23:25:31;;;;;;;92.10;33.92;;;;;;;;;;4330037;33;20035;-80
2022/01/10 23:31:14;;;;;;;84.22;35.08;;;;;;;;;;4312397;33;20543;-80
2022/01/10 23:33:40;;;;;;;84.55;33.47;;;;;;;;;;4331606;33;20028;-81
2022/01/10 23:36:07;;;;;;;;;;;;;;;;;;4331721;33;20016;-81
2022/01/10 23:41:39;;;;;;;84.53;36.28;;;;;;;;;;4285887;33;20152;-81
2022/01/10 23:47:53;;;;;;;;;;;;;;;;;;;;;
